Airfield :
LOGIN :

Register | Disclaimer

   EN    FR    IT 

 










Legend :    VFR   Marginal VFR   IFR   Intensive IFR   Very Intensive IFR
Visi :
Ceiling :
>= 8 km
>= 3000ft
5 to 8 km
1000 to 3000 ft
1500m to 5 km
500 to 1000 ft
800 to 1500m
200 to 500 ft
< 800m
< 200 ft
Symbols :   Thunderstorms  Fog  Heavy snow  Heavy precipitations  Wind > 20 kt
SIGMETs :     Misc.  Thunderstorms  Icing  Turbulence  Mountain Waves  Volcanic Ashes







- Airport Elevation : 74 ft
- IATA code : MRS
- Download approach charts


LFML - Marseille / Marignane

CURRENT METAR :
  • 251800Z AUTO 11009KT 9999 FEW012 BKN100 OVC130 16/06 Q1008 TEMPO 14018G28KT

EXPIRED METARs :
  • 251730Z AUTO 12008KT CAVOK 16/04 Q1009 TEMPO 14018G28KT
  • 251700Z AUTO 13007KT 9999 FEW048 OVC098 16/04 Q1009 TEMPO 14018G28KT
  • 251630Z AUTO 13012KT 9999 FEW034/// OVC092/// ///TCU 17/04 Q1009 TEMPO 14018G28KT BECMG FEW020 BKN110
  • 251600Z AUTO 13010KT 9999 FEW050/// OVC096/// ///TCU 16/05 Q1009 TEMPO 14018G28KT BECMG FEW020 BKN110
  • 251530Z AUTO 14013KT 9999 ///TCU 17/02 Q1009 TEMPO 14018G28KT BECMG FEW020 BKN110

TAF TAF LFML
Valid from the 25 at 15:00 until the 26 at 21:00 UTC


251400Z 2515/2621 15015KT 9999 FEW020 BKN110
TEMPO 2515/2524 14018G28KT
PROB40
TEMPO 2521/2524 SCT020
BECMG 2600/2601 -RA BKN020
TEMPO 2601/2604 3000 RA SCT008 OVC016TCU
BECMG 2604/2605 30010KT SCT015
BECMG 2613/2615 CAVOK
PROB40
TEMPO 2618/2621 32012KT SCT023 TX18/2515Z TN13/2605Z
ATIS : +33 4 42 31 15 15
No reported NOTAMs for that airfield.



MET'MAP, your aeronautical weather chart ! - Copyright ORBIFLY December 2007 - Disclaimer

ORBIFLY MET'MAP TEAM :

Programming & Development : Alexandra Zaïnal
Concept & Development : Baudouin d'Aumeries
Co-Development & Prog : Marc-Olivier Méhu
Technical & hardware support : Manuel Goepfert

Contact : metmap@orbifly.com




SOURCES & CREDITS :

   NOAA